createdAt,value
2023-05-02T00:02:18.500Z,37.10
2023-05-02T00:04:45.637Z,37.20
2023-05-02T00:07:12.890Z,38.73
2023-05-02T00:09:40.075Z,39.83
2023-05-02T00:12:07.192Z,34.97
2023-05-02T00:14:34.240Z,33.53
2023-05-02T00:17:01.412Z,35.87
2023-05-02T00:19:28.500Z,36.03
2023-05-02T00:21:55.609Z,34.87
2023-05-02T00:24:22.633Z,34.17
2023-05-02T00:26:49.734Z,34.30
2023-05-02T00:29:17.232Z,36.80
2023-05-02T00:31:44.415Z,35.00
2023-05-02T00:34:11.535Z,37.73
2023-05-02T00:36:38.708Z,37.20
2023-05-02T00:39:05.729Z,36.60
2023-05-02T00:41:35.988Z,35.97
2023-05-02T00:44:03.219Z,35.60
2023-05-02T00:46:30.491Z,34.73
2023-05-02T00:48:57.666Z,36.70
2023-05-02T00:51:24.804Z,36.77
2023-05-02T00:53:52.373Z,40.43
2023-05-02T00:56:19.488Z,37.60
2023-05-02T00:58:47.251Z,35.20
2023-05-02T01:01:24.913Z,36.07
2023-05-02T01:04:02.296Z,36.10
2023-05-02T01:06:41.630Z,36.60
2023-05-02T01:09:27.752Z,36.57
2023-05-02T01:12:05.475Z,40.57
2023-05-02T01:14:35.985Z,39.43
2023-05-02T01:17:05.664Z,34.37
2023-05-02T01:19:34.726Z,39.87
2023-05-02T01:22:04.190Z,38.03
2023-05-02T01:24:33.381Z,37.20
2023-05-02T01:27:19.479Z,42.03
2023-05-02T01:29:48.094Z,39.07
2023-05-02T01:32:15.861Z,43.50
2023-05-02T01:34:43.901Z,38.83
2023-05-02T01:37:13.219Z,41.20
2023-05-02T01:39:40.775Z,42.13
2023-05-02T01:42:07.937Z,41.37
2023-05-02T01:44:36.517Z,41.10
2023-05-02T01:47:05.466Z,44.77
2023-05-02T01:49:34.111Z,42.93
2023-05-02T01:52:04.800Z,40.73
2023-05-02T01:54:34.216Z,44.53
2023-05-02T01:57:03.751Z,39.73
2023-05-02T01:59:31.178Z,40.50
2023-05-02T02:01:59.605Z,44.47
2023-05-02T02:04:27.086Z,43.53
2023-05-02T02:07:01.766Z,40.13
2023-05-02T02:09:28.942Z,42.47
2023-05-02T02:12:14.721Z,38.27
2023-05-02T02:14:44.706Z,40.47
2023-05-02T02:17:32.046Z,37.37
2023-05-02T02:20:01.572Z,37.97
2023-05-02T02:22:29.701Z,39.03
2023-05-02T02:24:58.046Z,37.80
2023-05-02T02:27:25.160Z,37.00
2023-05-02T02:29:52.257Z,39.23
2023-05-02T02:32:19.324Z,37.00
2023-05-02T02:34:46.385Z,38.23
2023-05-02T02:37:18.789Z,38.90
2023-05-02T02:40:04.950Z,36.30
2023-05-02T02:42:31.987Z,39.33
2023-05-02T02:45:15.068Z,38.37
2023-05-02T02:47:43.946Z,35.97
2023-05-02T02:50:23.348Z,36.73
2023-05-02T02:52:56.217Z,35.33
2023-05-02T02:55:47.765Z,38.20
2023-05-02T02:58:19.714Z,35.00
2023-05-02T03:00:47.378Z,32.57
2023-05-02T03:03:19.022Z,35.90
2023-05-02T03:05:46.799Z,34.23
2023-05-02T03:08:13.857Z,34.10
2023-05-02T03:10:41.040Z,33.30
2023-05-02T03:13:08.092Z,34.33
2023-05-02T03:15:35.184Z,35.27
2023-05-02T03:18:02.305Z,31.23
2023-05-02T03:20:29.715Z,34.40
2023-05-02T03:22:56.872Z,35.43
2023-05-02T03:25:23.997Z,33.27
2023-05-02T03:27:51.138Z,32.73
2023-05-02T03:30:18.378Z,33.27
2023-05-02T03:32:45.605Z,29.47
2023-05-02T03:35:12.719Z,33.43
2023-05-02T03:37:39.993Z,28.73
2023-05-02T03:40:07.518Z,34.37
2023-05-02T03:42:41.398Z,31.83
2023-05-02T03:45:09.126Z,30.50
2023-05-02T03:47:36.280Z,32.70
2023-05-02T03:50:03.702Z,33.47
2023-05-02T03:52:31.161Z,30.43
2023-05-02T03:54:58.320Z,31.60
2023-05-02T03:57:33.135Z,27.70
2023-05-02T04:00:00.647Z,31.00
2023-05-02T04:02:28.101Z,28.53
2023-05-02T04:04:55.239Z,30.47
2023-05-02T04:07:22.420Z,28.80
2023-05-02T04:09:49.480Z,29.00
2023-05-02T04:12:16.603Z,31.67
2023-05-02T04:14:43.687Z,33.77
2023-05-02T04:17:11.038Z,27.23
2023-05-02T04:19:38.210Z,25.70
2023-05-02T04:22:05.376Z,21.23
2023-05-02T04:24:32.432Z,17.17
2023-05-02T04:26:59.738Z,19.97
2023-05-02T04:29:26.752Z,18.00
2023-05-02T04:31:54.270Z,14.43
2023-05-02T04:34:21.540Z,16.23
2023-05-02T04:36:49.059Z,15.53
2023-05-02T04:39:16.371Z,13.63
2023-05-02T04:41:43.604Z,11.80
2023-05-02T04:44:11.048Z,11.97
2023-05-02T04:46:38.319Z,8.43
2023-05-02T04:49:05.592Z,6.60
2023-05-02T04:51:32.899Z,6.30
2023-05-02T04:54:00.588Z,6.00
2023-05-02T04:56:27.799Z,5.77
2023-05-02T04:58:55.114Z,6.17
2023-05-02T05:01:24.312Z,5.07
2023-05-02T05:03:51.821Z,7.03
2023-05-02T05:06:19.535Z,4.90
2023-05-02T05:08:49.456Z,7.03
2023-05-02T05:11:19.949Z,7.73
2023-05-02T05:13:47.081Z,6.20
2023-05-02T05:16:14.246Z,9.73
2023-05-02T05:18:41.496Z,6.07
2023-05-02T05:21:09.363Z,7.53
2023-05-02T05:23:36.987Z,5.03
2023-05-02T05:26:15.254Z,5.37
2023-05-02T05:28:42.785Z,4.40
2023-05-02T05:31:11.024Z,9.23
2023-05-02T05:33:38.590Z,6.27
2023-05-02T05:36:09.617Z,6.87
2023-05-02T05:38:37.093Z,6.53
2023-05-02T05:41:05.423Z,7.03
2023-05-02T05:43:32.651Z,6.47
2023-05-02T05:45:59.820Z,6.03
2023-05-02T05:48:28.304Z,6.10
2023-05-02T05:50:55.458Z,5.97
2023-05-02T05:53:22.617Z,6.33
2023-05-02T05:55:49.855Z,8.33
2023-05-02T05:58:17.087Z,10.83
2023-05-02T06:00:44.244Z,7.87
2023-05-02T06:03:11.628Z,7.67
2023-05-02T06:05:38.855Z,8.43
2023-05-02T06:08:06.171Z,3.27
2023-05-02T06:10:33.348Z,3.27
2023-05-02T06:13:00.666Z,4.47
2023-05-02T06:15:27.907Z,2.70
2023-05-02T06:17:55.187Z,2.47
2023-05-02T06:20:22.489Z,2.47
2023-05-02T06:22:49.618Z,4.70
2023-05-02T06:25:16.917Z,4.13
2023-05-02T06:27:44.232Z,4.40
2023-05-02T06:30:11.562Z,5.97
2023-05-02T06:32:38.786Z,9.60
2023-05-02T06:35:06.292Z,4.27
2023-05-02T06:37:35.105Z,5.47
2023-05-02T06:40:03.306Z,8.60
2023-05-02T06:42:31.531Z,6.33
2023-05-02T06:44:58.800Z,8.03
2023-05-02T06:47:26.379Z,9.07
2023-05-02T06:49:53.933Z,8.77
2023-05-02T06:52:21.134Z,6.40
2023-05-02T06:54:48.427Z,9.47
2023-05-02T06:57:15.866Z,6.77
2023-05-02T06:59:43.167Z,8.33
2023-05-02T07:02:10.274Z,7.20
2023-05-02T07:04:37.517Z,12.00
2023-05-02T07:07:06.759Z,11.23
2023-05-02T07:09:33.922Z,9.50
2023-05-02T07:12:03.102Z,7.37
2023-05-02T07:14:31.776Z,10.37
2023-05-02T07:16:59.283Z,13.10
2023-05-02T07:19:26.465Z,10.33
2023-05-02T07:21:53.616Z,12.43
2023-05-02T07:24:20.924Z,8.63
2023-05-02T07:26:48.076Z,14.17
2023-05-02T07:29:15.142Z,13.13
2023-05-02T07:31:42.714Z,12.33
2023-05-02T07:34:09.990Z,11.93
2023-05-02T07:36:37.392Z,10.57
2023-05-02T07:39:04.501Z,10.23
2023-05-02T07:41:31.568Z,9.83
2023-05-02T07:43:58.892Z,13.97
2023-05-02T07:46:26.014Z,8.67
2023-05-02T07:48:54.054Z,14.07
2023-05-02T07:51:21.604Z,9.83
2023-05-02T07:53:54.364Z,12.17
2023-05-02T07:56:22.019Z,10.23
2023-05-02T07:58:50.094Z,11.17
2023-05-02T08:01:17.166Z,13.67
2023-05-02T08:03:44.761Z,8.43
2023-05-02T08:06:13.162Z,13.73
2023-05-02T08:08:40.291Z,12.03
2023-05-02T08:11:07.441Z,12.53
2023-05-02T08:13:34.753Z,15.00
2023-05-02T08:16:02.759Z,16.97
2023-05-02T08:18:30.325Z,20.53
2023-05-02T08:21:00.511Z,7.80
2023-05-02T08:23:27.643Z,11.70
2023-05-02T08:25:55.003Z,15.83
2023-05-02T08:28:22.042Z,11.33
2023-05-02T08:30:49.315Z,14.37
2023-05-02T08:33:16.993Z,9.83
2023-05-02T08:35:44.122Z,9.63
2023-05-02T08:38:11.490Z,9.63
2023-05-02T08:40:42.759Z,8.57
2023-05-02T08:43:11.797Z,5.40
2023-05-02T08:45:43.376Z,9.50
2023-05-02T08:48:12.150Z,8.70
2023-05-02T08:50:45.341Z,8.43
2023-05-02T08:53:14.373Z,6.60
2023-05-02T08:55:42.324Z,10.90
2023-05-02T08:58:10.733Z,8.37
2023-05-02T09:00:41.782Z,11.57
2023-05-02T09:03:16.616Z,5.97
2023-05-02T09:05:44.459Z,6.17
2023-05-02T09:08:11.674Z,7.60
2023-05-02T09:10:40.966Z,7.63
2023-05-02T09:13:26.822Z,13.47
2023-05-02T09:16:01.005Z,9.17
2023-05-02T09:18:30.304Z,9.27
2023-05-02T09:20:59.064Z,9.80
2023-05-02T09:23:44.751Z,8.63
2023-05-02T09:26:14.792Z,7.00
2023-05-02T09:28:46.414Z,4.20
2023-05-02T09:31:16.859Z,5.63
2023-05-02T09:33:49.561Z,9.33
2023-05-02T09:36:18.016Z,7.33
2023-05-02T09:38:49.882Z,4.10
2023-05-02T09:41:23.012Z,4.43
2023-05-02T09:44:16.666Z,6.17
2023-05-02T09:46:46.868Z,5.83
2023-05-02T09:49:23.781Z,7.53
2023-05-02T09:51:52.348Z,7.17
2023-05-02T09:54:40.378Z,4.67
2023-05-02T09:57:10.217Z,6.53
2023-05-02T09:59:37.905Z,4.37
2023-05-02T10:02:07.233Z,6.00
2023-05-02T10:04:34.802Z,4.43
2023-05-02T10:07:03.178Z,3.40
2023-05-02T10:09:32.644Z,2.17
2023-05-02T10:12:04.901Z,4.70
2023-05-02T10:14:32.514Z,4.57
2023-05-02T10:17:05.747Z,3.10
2023-05-02T10:20:03.546Z,5.27
2023-05-02T10:22:32.160Z,6.13
2023-05-02T10:25:03.808Z,3.27
2023-05-02T10:27:35.365Z,4.07
2023-05-02T10:30:05.245Z,2.90
2023-05-02T10:32:38.666Z,7.23
2023-05-02T10:35:07.879Z,3.70
2023-05-02T10:37:37.014Z,6.97
2023-05-02T10:40:06.923Z,8.37
2023-05-02T10:42:39.196Z,6.70
2023-05-02T10:45:07.740Z,6.87
2023-05-02T10:47:35.063Z,10.10
2023-05-02T10:50:03.426Z,8.63
2023-05-02T10:52:35.237Z,7.37
2023-05-02T10:55:23.252Z,14.60
2023-05-02T10:57:59.376Z,11.60
2023-05-02T11:00:30.850Z,11.03
2023-05-02T11:02:58.261Z,8.70
2023-05-02T11:05:26.004Z,9.43
2023-05-02T11:08:11.894Z,9.13
2023-05-02T11:10:39.045Z,10.10
2023-05-02T11:13:06.204Z,9.67
2023-05-02T11:15:42.420Z,5.97
2023-05-02T11:18:15.708Z,6.67
2023-05-02T11:20:45.445Z,10.07
2023-05-02T11:23:16.538Z,5.73
2023-05-02T11:25:45.073Z,11.33
2023-05-02T11:28:31.154Z,7.03
2023-05-02T11:30:59.487Z,6.77
2023-05-02T11:33:28.956Z,7.33
2023-05-02T11:35:59.412Z,8.47
2023-05-02T11:38:27.468Z,7.97
2023-05-02T11:40:55.968Z,9.87
2023-05-02T11:43:25.229Z,5.93
2023-05-02T11:45:52.725Z,10.93
2023-05-02T11:48:23.062Z,9.43
2023-05-02T11:50:54.688Z,9.33
2023-05-02T11:53:23.355Z,11.23
2023-05-02T11:55:51.656Z,8.17
2023-05-02T11:58:39.127Z,10.33
2023-05-02T12:01:16.534Z,11.40
2023-05-02T12:03:44.127Z,8.10
2023-05-02T12:06:13.071Z,9.57
2023-05-02T12:08:41.022Z,13.70
2023-05-02T12:11:09.242Z,8.30
2023-05-02T12:13:36.527Z,9.40
2023-05-02T12:16:04.741Z,10.20
2023-05-02T12:18:33.308Z,12.83
2023-05-02T12:21:00.662Z,8.13
2023-05-02T12:23:27.941Z,9.83
2023-05-02T12:25:56.374Z,10.30
2023-05-02T12:28:24.156Z,8.20
2023-05-02T12:30:51.901Z,8.00
2023-05-02T12:33:19.523Z,11.27
2023-05-02T12:35:47.492Z,9.20
2023-05-02T12:38:20.335Z,8.63
2023-05-02T12:40:48.904Z,7.47
2023-05-02T12:43:16.377Z,9.43
2023-05-02T12:45:43.860Z,14.60
2023-05-02T12:48:24.586Z,9.53
2023-05-02T12:50:51.984Z,12.93
2023-05-02T12:53:19.123Z,6.63
2023-05-02T12:55:46.878Z,9.67
2023-05-02T12:58:14.110Z,6.90
2023-05-02T13:00:42.849Z,9.63
2023-05-02T13:03:11.102Z,9.57
2023-05-02T13:05:38.597Z,9.37
2023-05-02T13:08:06.169Z,8.43
2023-05-02T13:10:33.281Z,11.00
2023-05-02T13:13:01.570Z,11.47
2023-05-02T13:15:28.986Z,9.73
2023-05-02T13:17:56.219Z,10.97
2023-05-02T13:20:23.493Z,7.77
2023-05-02T13:22:50.566Z,6.90
2023-05-02T13:25:17.714Z,10.80
2023-05-02T13:27:46.028Z,8.00
2023-05-02T13:30:13.642Z,8.17
2023-05-02T13:32:41.325Z,10.23
2023-05-02T13:35:09.081Z,10.03
2023-05-02T13:37:36.494Z,9.93
2023-05-02T13:40:04.952Z,9.10
2023-05-02T13:42:32.560Z,11.23
2023-05-02T13:44:59.894Z,12.47
2023-05-02T13:47:27.057Z,9.10
2023-05-02T13:49:54.310Z,7.77
2023-05-02T13:52:21.956Z,7.03
2023-05-02T13:54:50.274Z,10.63
2023-05-02T13:57:17.427Z,9.07
2023-05-02T13:59:44.572Z,7.40
2023-05-02T14:02:11.804Z,8.90
2023-05-02T14:04:38.896Z,7.90
2023-05-02T14:07:06.345Z,7.27
2023-05-02T14:09:33.424Z,11.17
2023-05-02T14:12:01.935Z,8.93
2023-05-02T14:14:29.079Z,4.37
2023-05-02T14:16:56.240Z,7.00
2023-05-02T14:19:23.292Z,7.83
2023-05-02T14:21:50.446Z,10.40
2023-05-02T14:24:18.308Z,8.90
2023-05-02T14:26:46.503Z,7.37
2023-05-02T14:29:13.823Z,7.57
2023-05-02T14:31:40.952Z,9.60
2023-05-02T14:34:09.105Z,7.80
2023-05-02T14:36:36.432Z,4.97
2023-05-02T14:39:03.605Z,6.97
2023-05-02T14:41:30.827Z,12.77
2023-05-02T14:43:57.976Z,6.37
2023-05-02T14:46:25.170Z,7.80
2023-05-02T14:48:52.358Z,7.77
2023-05-02T14:51:19.503Z,7.50
2023-05-02T14:53:48.941Z,5.93
2023-05-02T14:56:17.206Z,5.90
2023-05-02T14:58:44.348Z,6.17
2023-05-02T15:01:21.540Z,32.00
2023-05-02T15:04:05.230Z,7.20
2023-05-02T15:06:35.626Z,8.13
2023-05-02T15:09:03.168Z,6.97
2023-05-02T15:11:30.303Z,12.13
2023-05-02T15:13:59.457Z,4.17
2023-05-02T15:16:27.575Z,4.83
2023-05-02T15:18:54.907Z,3.80
2023-05-02T15:21:22.382Z,6.13
2023-05-02T15:23:49.540Z,7.17
2023-05-02T15:26:34.819Z,4.40
2023-05-02T15:29:01.945Z,8.87
2023-05-02T15:31:29.400Z,3.53
2023-05-02T15:33:56.651Z,6.30
2023-05-02T15:36:28.963Z,5.90
2023-05-02T15:38:58.477Z,4.83
2023-05-02T15:41:27.512Z,7.53
2023-05-02T15:43:54.795Z,5.47
2023-05-02T15:46:22.178Z,5.33
2023-05-02T15:48:49.363Z,7.33
2023-05-02T15:51:16.630Z,7.57
2023-05-02T15:53:44.874Z,5.33
2023-05-02T15:56:12.674Z,5.53
2023-05-02T15:58:40.284Z,5.00
2023-05-02T16:01:07.977Z,3.83
2023-05-02T16:03:35.409Z,7.43
2023-05-02T16:06:05.343Z,5.13
2023-05-02T16:08:32.597Z,5.20
2023-05-02T16:11:04.255Z,5.27
2023-05-02T16:13:31.945Z,6.83
2023-05-02T16:15:59.376Z,4.20
2023-05-02T16:18:29.450Z,5.43
2023-05-02T16:20:57.240Z,5.50
2023-05-02T16:23:25.690Z,3.70
2023-05-02T16:26:01.040Z,5.00
2023-05-02T16:28:28.508Z,4.87
2023-05-02T16:30:56.243Z,5.00
2023-05-02T16:33:23.570Z,6.30
2023-05-02T16:35:50.830Z,5.33
2023-05-02T16:38:18.053Z,3.23
2023-05-02T16:40:45.263Z,6.07
2023-05-02T16:43:12.516Z,4.67
2023-05-02T16:45:39.779Z,5.93
2023-05-02T16:48:07.955Z,4.57
2023-05-02T16:50:35.310Z,8.13
2023-05-02T16:53:02.511Z,4.60
2023-05-02T16:55:30.642Z,12.23
2023-05-02T17:00:29.779Z,2.67
2023-05-02T17:02:57.157Z,3.33
2023-05-02T17:05:24.441Z,3.33
2023-05-02T17:07:52.068Z,5.70
2023-05-02T17:10:19.603Z,5.73
2023-05-02T17:12:46.923Z,4.43
2023-05-02T17:15:14.210Z,4.03
2023-05-02T17:17:41.359Z,6.37
2023-05-02T17:20:10.050Z,3.00
2023-05-02T17:22:38.189Z,5.20
2023-05-02T17:25:06.482Z,4.87
2023-05-02T17:27:33.786Z,6.43
2023-05-02T17:30:01.173Z,5.03
2023-05-02T17:32:28.636Z,3.70
2023-05-02T17:34:57.637Z,6.27
2023-05-02T17:37:26.228Z,5.13
2023-05-02T17:39:53.510Z,4.87
2023-05-02T17:42:20.822Z,5.60
2023-05-02T17:44:48.491Z,8.13
2023-05-02T17:47:18.131Z,3.90
2023-05-02T17:49:47.503Z,4.77
2023-05-02T17:52:14.804Z,3.10
2023-05-02T17:54:42.428Z,7.30
2023-05-02T17:57:10.270Z,7.83
2023-05-02T17:59:40.537Z,2.50
2023-05-02T18:02:10.253Z,3.47
2023-05-02T18:04:45.406Z,5.37
2023-05-02T18:07:13.373Z,2.83
2023-05-02T18:09:40.726Z,2.03
2023-05-02T18:12:07.921Z,5.03
2023-05-02T18:14:35.221Z,4.93
2023-05-02T18:17:04.168Z,5.43
2023-05-02T18:19:31.532Z,3.43
2023-05-02T18:21:58.795Z,4.27
2023-05-02T18:24:26.199Z,5.77
2023-05-02T18:26:53.290Z,4.40
2023-05-02T18:29:20.589Z,4.83
2023-05-02T18:31:52.356Z,3.93
2023-05-02T18:34:20.074Z,3.50
2023-05-02T18:36:47.532Z,5.87
2023-05-02T18:39:14.870Z,8.13
2023-05-02T18:41:42.136Z,3.80
2023-05-02T18:44:10.451Z,7.20
2023-05-02T18:46:39.413Z,5.57
2023-05-02T18:49:09.094Z,7.03
2023-05-02T18:51:36.428Z,3.90
2023-05-02T18:54:03.937Z,4.23
2023-05-02T18:56:31.244Z,4.13
2023-05-02T18:58:58.834Z,9.47
2023-05-02T19:01:26.432Z,7.03
2023-05-02T19:03:54.436Z,4.10
2023-05-02T19:06:21.798Z,2.93
2023-05-02T19:08:49.970Z,5.40
2023-05-02T19:11:17.695Z,8.13
2023-05-02T19:13:50.140Z,5.30
2023-05-02T19:16:17.597Z,5.00
2023-05-02T19:21:28.643Z,14.07
2023-05-02T19:23:56.709Z,7.73
2023-05-02T19:26:24.412Z,8.57
2023-05-02T19:28:52.020Z,9.17
2023-05-02T19:31:20.411Z,6.70
2023-05-02T19:33:55.057Z,2.13
2023-05-02T19:36:27.463Z,2.80
2023-05-02T19:38:58.293Z,4.90
2023-05-02T19:41:26.251Z,3.73
2023-05-02T19:43:55.565Z,3.40
2023-05-02T19:46:23.231Z,3.37
2023-05-02T19:48:50.489Z,4.00
2023-05-02T19:51:25.206Z,3.40
2023-05-02T19:53:54.092Z,5.27
2023-05-02T19:56:21.706Z,2.50
2023-05-02T19:58:48.948Z,3.23
2023-05-02T20:01:16.196Z,6.90
2023-05-02T20:03:44.223Z,4.00
2023-05-02T20:06:11.591Z,2.03
2023-05-02T20:08:38.963Z,4.93
2023-05-02T20:11:06.400Z,6.53
2023-05-02T20:13:33.844Z,4.20
2023-05-02T20:16:01.054Z,5.27
2023-05-02T20:18:28.415Z,3.00
2023-05-02T20:20:56.579Z,4.10
2023-05-02T20:23:24.000Z,3.80
2023-05-02T20:25:51.470Z,8.97
2023-05-02T20:28:18.778Z,5.97
2023-05-02T20:30:46.118Z,3.20
2023-05-02T20:33:16.605Z,4.50
2023-05-02T20:35:45.520Z,6.83
2023-05-02T20:38:13.000Z,3.57
2023-05-02T20:40:41.418Z,5.47
2023-05-02T20:43:09.047Z,5.33
2023-05-02T20:45:36.247Z,6.10
2023-05-02T20:48:03.612Z,4.43
2023-05-02T20:50:31.095Z,7.30
2023-05-02T20:52:58.421Z,5.00
2023-05-02T20:55:25.794Z,5.13
2023-05-02T20:57:53.320Z,4.07
2023-05-02T21:00:24.237Z,5.73
2023-05-02T21:02:51.679Z,3.63
2023-05-02T21:05:18.934Z,3.17
2023-05-02T21:07:46.604Z,3.80
2023-05-02T21:10:13.996Z,5.37
2023-05-02T21:12:41.181Z,7.03
2023-05-02T21:15:08.786Z,8.67
2023-05-02T21:17:36.270Z,8.33
2023-05-02T21:20:03.914Z,8.37
2023-05-02T21:22:31.429Z,7.93
2023-05-02T21:24:59.539Z,5.57
2023-05-02T21:27:26.951Z,6.60
2023-05-02T21:29:54.359Z,3.70
2023-05-02T21:32:22.419Z,3.33
2023-05-02T21:34:50.926Z,4.07
2023-05-02T21:37:18.117Z,6.13
2023-05-02T21:39:45.296Z,4.77
2023-05-02T21:42:13.132Z,4.67
2023-05-02T21:44:40.368Z,5.47
2023-05-02T21:47:07.734Z,2.87
2023-05-02T21:49:35.046Z,5.27
2023-05-02T21:52:03.480Z,4.93
2023-05-02T21:54:31.364Z,5.07
2023-05-02T21:56:58.622Z,4.60
2023-05-02T21:59:27.389Z,3.73
2023-05-02T22:01:54.734Z,7.03
2023-05-02T22:04:23.042Z,3.30
2023-05-02T22:06:53.668Z,5.70
2023-05-02T22:09:22.078Z,4.10
2023-05-02T22:11:49.299Z,5.20
2023-05-02T22:14:16.586Z,4.83
2023-05-02T22:16:43.892Z,4.07
2023-05-02T22:19:12.013Z,4.20
2023-05-02T22:21:39.304Z,6.07
2023-05-02T22:24:06.754Z,4.37
2023-05-02T22:26:34.066Z,3.33
2023-05-02T22:29:01.443Z,3.47
2023-05-02T22:31:28.640Z,3.77
2023-05-02T22:33:55.964Z,9.13
2023-05-02T22:36:23.297Z,4.83
2023-05-02T22:38:50.459Z,7.13
2023-05-02T22:41:17.594Z,4.70
2023-05-02T22:43:44.947Z,10.97
2023-05-02T22:46:12.178Z,6.67
2023-05-02T22:48:39.463Z,2.33
2023-05-02T22:51:06.851Z,8.60
2023-05-02T22:53:35.399Z,5.53
2023-05-02T22:56:02.999Z,3.33
2023-05-02T22:58:30.437Z,14.00
2023-05-02T23:00:57.665Z,3.57
2023-05-02T23:03:24.916Z,2.73
2023-05-02T23:05:52.080Z,5.23
2023-05-02T23:08:19.327Z,3.07
2023-05-02T23:10:46.593Z,2.40
2023-05-02T23:13:13.905Z,4.63
2023-05-02T23:15:41.668Z,4.20
2023-05-02T23:18:08.897Z,6.60
2023-05-02T23:20:36.003Z,6.73
2023-05-02T23:23:04.214Z,3.30
2023-05-02T23:25:31.642Z,3.00
2023-05-02T23:27:58.771Z,6.67
2023-05-02T23:30:25.923Z,3.67
2023-05-02T23:32:53.294Z,5.53
2023-05-02T23:35:21.095Z,5.13
2023-05-02T23:37:49.132Z,6.63
2023-05-02T23:40:16.301Z,4.53
2023-05-02T23:42:43.541Z,3.87
2023-05-02T23:45:10.991Z,4.87
2023-05-02T23:47:38.719Z,2.50
2023-05-02T23:50:06.342Z,5.27
2023-05-02T23:52:33.760Z,6.53
2023-05-02T23:55:01.005Z,4.67
2023-05-02T23:57:30.107Z,7.07
2023-05-02T23:59:57.163Z,7.20
